sensor_id;sensor_type;location;lat;lon;timestamp;pressure;altitude;pressure_sealevel;temperature;humidity
60465;BME280;46314;52.392;9.758;2024-01-11T00:00:18;102572.13;;;-4.60;80.09
60465;BME280;46314;52.392;9.758;2024-01-11T00:02:44;102568.88;;;-4.81;81.22
60465;BME280;46314;52.392;9.758;2024-01-11T00:05:11;102564.16;;;-4.61;79.35
60465;BME280;46314;52.392;9.758;2024-01-11T00:07:38;102577.03;;;-5.46;84.02
60465;BME280;46314;52.392;9.758;2024-01-11T00:10:05;102568.25;;;-4.75;82.92
60465;BME280;46314;52.392;9.758;2024-01-11T00:12:31;102579.03;;;-4.65;81.41
60465;BME280;46314;52.392;9.758;2024-01-11T00:14:58;102581.19;;;-4.51;80.47
60465;BME280;46314;52.392;9.758;2024-01-11T00:17:26;102579.88;;;-4.29;79.17
60465;BME280;46314;52.392;9.758;2024-01-11T00:19:52;102563.91;;;-4.14;77.97
60465;BME280;46314;52.392;9.758;2024-01-11T00:22:19;102551.88;;;-4.38;78.40
60465;BME280;46314;52.392;9.758;2024-01-11T00:24:45;102558.16;;;-4.55;80.45
60465;BME280;46314;52.392;9.758;2024-01-11T00:27:12;102547.06;;;-4.44;79.71
60465;BME280;46314;52.392;9.758;2024-01-11T00:29:38;102545.13;;;-4.33;78.49
60465;BME280;46314;52.392;9.758;2024-01-11T00:32:05;102557.78;;;-4.88;80.52
60465;BME280;46314;52.392;9.758;2024-01-11T00:34:33;102543.38;;;-4.43;79.43
60465;BME280;46314;52.392;9.758;2024-01-11T00:36:59;102540.66;;;-4.61;79.51
60465;BME280;46314;52.392;9.758;2024-01-11T00:39:26;102541.25;;;-4.49;79.24
60465;BME280;46314;52.392;9.758;2024-01-11T00:41:52;102537.41;;;-4.64;79.36
60465;BME280;46314;52.392;9.758;2024-01-11T00:44:19;102536.28;;;-4.89;81.51
60465;BME280;46314;52.392;9.758;2024-01-11T00:46:45;102540.56;;;-4.33;78.50
60465;BME280;46314;52.392;9.758;2024-01-11T00:49:12;102537.47;;;-4.20;77.28
60465;BME280;46314;52.392;9.758;2024-01-11T00:51:40;102546.91;;;-4.60;79.07
60465;BME280;46314;52.392;9.758;2024-01-11T00:54:06;102563.25;;;-4.52;78.59
60465;BME280;46314;52.392;9.758;2024-01-11T00:56:33;102560.78;;;-4.27;76.53
60465;BME280;46314;52.392;9.758;2024-01-11T00:59:00;102558.97;;;-4.54;76.91
60465;BME280;46314;52.392;9.758;2024-01-11T01:01:26;102571.69;;;-5.66;81.36
60465;BME280;46314;52.392;9.758;2024-01-11T01:03:53;102573.84;;;-4.77;79.85
60465;BME280;46314;52.392;9.758;2024-01-11T01:06:19;102557.59;;;-4.41;77.10
60465;BME280;46314;52.392;9.758;2024-01-11T01:08:47;102559.56;;;-5.24;79.65
60465;BME280;46314;52.392;9.758;2024-01-11T01:11:14;102548.59;;;-4.95;79.08
60465;BME280;46314;52.392;9.758;2024-01-11T01:13:40;102544.38;;;-5.07;79.02
60465;BME280;46314;52.392;9.758;2024-01-11T01:16:07;102527.34;;;-4.90;78.72
60465;BME280;46314;52.392;9.758;2024-01-11T01:18:33;102517.69;;;-4.74;77.62
60465;BME280;46314;52.392;9.758;2024-01-11T01:21:00;102515.53;;;-5.17;79.16
60465;BME280;46314;52.392;9.758;2024-01-11T01:23:26;102521.38;;;-6.24;84.80
60465;BME280;46314;52.392;9.758;2024-01-11T01:28:28;102528.22;;;-5.92;85.35
60465;BME280;46314;52.392;9.758;2024-01-11T01:30:55;102526.09;;;-5.51;84.52
60465;BME280;46314;52.392;9.758;2024-01-11T01:33:21;102523.69;;;-4.99;80.94
60465;BME280;46314;52.392;9.758;2024-01-11T01:35:48;102534.63;;;-5.18;81.09
60465;BME280;46314;52.392;9.758;2024-01-11T01:38:14;102553.09;;;-5.88;85.46
60465;BME280;46314;52.392;9.758;2024-01-11T01:40:41;102556.94;;;-5.81;86.46
60465;BME280;46314;52.392;9.758;2024-01-11T01:43:07;102540.97;;;-5.09;82.58
60465;BME280;46314;52.392;9.758;2024-01-11T01:45:35;102536.78;;;-4.94;80.17
60465;BME280;46314;52.392;9.758;2024-01-11T01:48:03;102524.22;;;-4.95;80.52
60465;BME280;46314;52.392;9.758;2024-01-11T01:50:30;102535.69;;;-4.65;78.46
60465;BME280;46314;52.392;9.758;2024-01-11T01:52:57;102556.31;;;-5.65;83.34
60465;BME280;46314;52.392;9.758;2024-01-11T01:55:25;102550.03;;;-5.01;81.06
60465;BME280;46314;52.392;9.758;2024-01-11T01:57:51;102551.34;;;-5.70;84.30
60465;BME280;46314;52.392;9.758;2024-01-11T02:00:19;102537.03;;;-5.43;82.40
60465;BME280;46314;52.392;9.758;2024-01-11T02:02:50;102539.25;;;-5.66;83.32
60465;BME280;46314;52.392;9.758;2024-01-11T02:05:18;102539.19;;;-5.56;83.19
60465;BME280;46314;52.392;9.758;2024-01-11T02:07:45;102540.22;;;-5.57;83.01
60465;BME280;46314;52.392;9.758;2024-01-11T02:10:12;102531.38;;;-5.22;80.18
60465;BME280;46314;52.392;9.758;2024-01-11T02:12:39;102525.75;;;-5.66;81.13
60465;BME280;46314;52.392;9.758;2024-01-11T02:15:06;102526.84;;;-5.59;81.45
60465;BME280;46314;52.392;9.758;2024-01-11T02:17:33;102518.19;;;-5.72;81.32
60465;BME280;46314;52.392;9.758;2024-01-11T02:20:01;102527.75;;;-5.78;82.56
60465;BME280;46314;52.392;9.758;2024-01-11T02:22:29;102516.94;;;-6.15;81.91
60465;BME280;46314;52.392;9.758;2024-01-11T02:24:59;102528.38;;;-5.84;82.69
60465;BME280;46314;52.392;9.758;2024-01-11T02:27:25;102546.81;;;-5.69;81.50
60465;BME280;46314;52.392;9.758;2024-01-11T02:29:52;102535.59;;;-5.19;79.08
60465;BME280;46314;52.392;9.758;2024-01-11T02:32:18;102531.66;;;-4.97;77.59
60465;BME280;46314;52.392;9.758;2024-01-11T02:34:45;102515.84;;;-5.02;78.15
60465;BME280;46314;52.392;9.758;2024-01-11T02:37:12;102526.53;;;-5.28;80.01
60465;BME280;46314;52.392;9.758;2024-01-11T02:39:39;102504.06;;;-5.28;80.37
60465;BME280;46314;52.392;9.758;2024-01-11T02:42:06;102508.63;;;-5.29;79.91
60465;BME280;46314;52.392;9.758;2024-01-11T02:44:33;102504.81;;;-5.64;81.01
60465;BME280;46314;52.392;9.758;2024-01-11T02:46:59;102511.13;;;-5.83;81.68
60465;BME280;46314;52.392;9.758;2024-01-11T02:49:26;102513.91;;;-5.65;81.48
60465;BME280;46314;52.392;9.758;2024-01-11T02:51:52;102497.91;;;-5.48;81.32
60465;BME280;46314;52.392;9.758;2024-01-11T02:54:19;102506.13;;;-5.68;81.70
60465;BME280;46314;52.392;9.758;2024-01-11T02:56:45;102506.22;;;-5.32;81.06
60465;BME280;46314;52.392;9.758;2024-01-11T02:59:13;102509.03;;;-6.66;86.89
60465;BME280;46314;52.392;9.758;2024-01-11T03:01:40;102513.00;;;-5.83;84.71
60465;BME280;46314;52.392;9.758;2024-01-11T03:04:06;102497.44;;;-5.16;80.81
60465;BME280;46314;52.392;9.758;2024-01-11T03:06:33;102524.84;;;-5.94;84.54
60465;BME280;46314;52.392;9.758;2024-01-11T03:08:59;102511.66;;;-5.42;82.46
60465;BME280;46314;52.392;9.758;2024-01-11T03:11:26;102509.91;;;-4.87;79.51
60465;BME280;46314;52.392;9.758;2024-01-11T03:13:52;102503.81;;;-4.89;79.63
60465;BME280;46314;52.392;9.758;2024-01-11T03:16:20;102511.53;;;-4.95;80.15
60465;BME280;46314;52.392;9.758;2024-01-11T03:18:46;102500.19;;;-4.62;77.39
60465;BME280;46314;52.392;9.758;2024-01-11T03:21:13;102503.59;;;-4.60;76.13
60465;BME280;46314;52.392;9.758;2024-01-11T03:23:40;102506.56;;;-5.17;77.97
60465;BME280;46314;52.392;9.758;2024-01-11T03:26:12;102508.91;;;-5.04;78.55
60465;BME280;46314;52.392;9.758;2024-01-11T03:28:38;102507.38;;;-4.53;74.93
60465;BME280;46314;52.392;9.758;2024-01-11T03:31:05;102503.50;;;-4.50;74.12
60465;BME280;46314;52.392;9.758;2024-01-11T03:33:33;102502.50;;;-4.49;73.65
60465;BME280;46314;52.392;9.758;2024-01-11T03:36:06;102510.59;;;-5.03;76.58
60465;BME280;46314;52.392;9.758;2024-01-11T03:38:32;102519.69;;;-4.77;76.94
60465;BME280;46314;52.392;9.758;2024-01-11T03:40:59;102531.56;;;-5.05;78.14
60465;BME280;46314;52.392;9.758;2024-01-11T03:43:25;102532.31;;;-4.67;77.07
60465;BME280;46314;52.392;9.758;2024-01-11T03:45:52;102535.84;;;-4.85;79.34
60465;BME280;46314;52.392;9.758;2024-01-11T03:48:19;102538.00;;;-4.52;76.95
60465;BME280;46314;52.392;9.758;2024-01-11T03:50:46;102526.47;;;-4.37;75.71
60465;BME280;46314;52.392;9.758;2024-01-11T03:53:13;102525.66;;;-4.73;76.31
60465;BME280;46314;52.392;9.758;2024-01-11T03:55:40;102517.88;;;-5.04;79.04
60465;BME280;46314;52.392;9.758;2024-01-11T03:58:06;102522.75;;;-4.71;77.14
60465;BME280;46314;52.392;9.758;2024-01-11T04:00:33;102519.97;;;-4.98;76.96
60465;BME280;46314;52.392;9.758;2024-01-11T04:02:59;102527.97;;;-4.78;77.18
60465;BME280;46314;52.392;9.758;2024-01-11T04:05:26;102540.03;;;-4.90;77.83
60465;BME280;46314;52.392;9.758;2024-01-11T04:07:54;102539.78;;;-5.25;78.40
60465;BME280;46314;52.392;9.758;2024-01-11T04:10:20;102522.84;;;-4.81;77.42
60465;BME280;46314;52.392;9.758;2024-01-11T04:12:47;102525.31;;;-4.88;77.63
60465;BME280;46314;52.392;9.758;2024-01-11T04:15:13;102511.22;;;-5.37;80.50
60465;BME280;46314;52.392;9.758;2024-01-11T04:17:40;102516.84;;;-5.48;81.17
60465;BME280;46314;52.392;9.758;2024-01-11T04:20:07;102511.72;;;-5.52;81.43
60465;BME280;46314;52.392;9.758;2024-01-11T04:22:34;102510.16;;;-5.54;82.06
60465;BME280;46314;52.392;9.758;2024-01-11T04:25:02;102509.44;;;-5.19;79.86
60465;BME280;46314;52.392;9.758;2024-01-11T04:27:29;102506.66;;;-6.02;83.84
60465;BME280;46314;52.392;9.758;2024-01-11T04:29:55;102511.59;;;-6.54;88.56
60465;BME280;46314;52.392;9.758;2024-01-11T04:32:22;102516.06;;;-6.06;87.28
60465;BME280;46314;52.392;9.758;2024-01-11T04:34:48;102512.47;;;-5.32;83.52
60465;BME280;46314;52.392;9.758;2024-01-11T04:37:14;102511.84;;;-5.81;85.03
60465;BME280;46314;52.392;9.758;2024-01-11T04:39:41;102497.13;;;-5.31;82.06
60465;BME280;46314;52.392;9.758;2024-01-11T04:42:09;102502.81;;;-5.06;80.04
60465;BME280;46314;52.392;9.758;2024-01-11T04:44:35;102494.06;;;-4.82;78.65
60465;BME280;46314;52.392;9.758;2024-01-11T04:47:02;102499.56;;;-4.74;77.89
60465;BME280;46314;52.392;9.758;2024-01-11T04:49:28;102497.94;;;-4.85;78.51
60465;BME280;46314;52.392;9.758;2024-01-11T04:51:55;102508.28;;;-5.44;80.95
60465;BME280;46314;52.392;9.758;2024-01-11T04:54:21;102515.81;;;-5.47;82.53
60465;BME280;46314;52.392;9.758;2024-01-11T04:56:47;102524.56;;;-5.26;80.58
60465;BME280;46314;52.392;9.758;2024-01-11T04:59:15;102532.81;;;-5.27;79.59
60465;BME280;46314;52.392;9.758;2024-01-11T05:01:42;102550.53;;;-5.43;81.51
60465;BME280;46314;52.392;9.758;2024-01-11T05:04:08;102551.50;;;-5.34;82.08
60465;BME280;46314;52.392;9.758;2024-01-11T05:06:35;102557.34;;;-4.83;78.36
60465;BME280;46314;52.392;9.758;2024-01-11T05:09:01;102558.44;;;-4.76;77.54
60465;BME280;46314;52.392;9.758;2024-01-11T05:11:28;102562.28;;;-4.79;77.42
60465;BME280;46314;52.392;9.758;2024-01-11T05:13:54;102562.44;;;-4.80;77.42
60465;BME280;46314;52.392;9.758;2024-01-11T05:16:23;102567.19;;;-5.10;79.25
60465;BME280;46314;52.392;9.758;2024-01-11T05:18:50;102573.97;;;-4.78;76.80
60465;BME280;46314;52.392;9.758;2024-01-11T05:21:17;102560.06;;;-4.65;75.93
60465;BME280;46314;52.392;9.758;2024-01-11T05:23:44;102557.94;;;-4.89;76.53
60465;BME280;46314;52.392;9.758;2024-01-11T05:26:11;102559.41;;;-5.23;78.30
60465;BME280;46314;52.392;9.758;2024-01-11T05:28:37;102553.34;;;-5.07;78.02
60465;BME280;46314;52.392;9.758;2024-01-11T05:31:05;102552.97;;;-5.49;79.50
60465;BME280;46314;52.392;9.758;2024-01-11T05:33:33;102546.25;;;-5.45;80.93
60465;BME280;46314;52.392;9.758;2024-01-11T05:36:00;102540.59;;;-5.15;79.79
60465;BME280;46314;52.392;9.758;2024-01-11T05:38:27;102539.91;;;-5.26;79.62
60465;BME280;46314;52.392;9.758;2024-01-11T05:40:53;102544.81;;;-5.77;84.39
60465;BME280;46314;52.392;9.758;2024-01-11T05:43:20;102533.56;;;-5.35;81.95
60465;BME280;46314;52.392;9.758;2024-01-11T05:45:46;102527.16;;;-5.06;81.26
60465;BME280;46314;52.392;9.758;2024-01-11T05:48:14;102524.78;;;-5.19;82.31
60465;BME280;46314;52.392;9.758;2024-01-11T05:50:45;102532.94;;;-5.47;82.80
60465;BME280;46314;52.392;9.758;2024-01-11T05:53:14;102533.16;;;-5.68;85.12
60465;BME280;46314;52.392;9.758;2024-01-11T05:55:42;102548.34;;;-6.14;86.17
60465;BME280;46314;52.392;9.758;2024-01-11T05:58:09;102544.53;;;-5.37;85.01
60465;BME280;46314;52.392;9.758;2024-01-11T06:00:35;102532.03;;;-4.92;80.89
60465;BME280;46314;52.392;9.758;2024-01-11T06:03:04;102517.72;;;-5.02;80.85
60465;BME280;46314;52.392;9.758;2024-01-11T06:05:31;102527.50;;;-5.47;84.23
60465;BME280;46314;52.392;9.758;2024-01-11T06:07:59;102527.22;;;-4.98;82.40
60465;BME280;46314;52.392;9.758;2024-01-11T06:10:25;102524.31;;;-5.33;82.72
60465;BME280;46314;52.392;9.758;2024-01-11T06:12:52;102545.94;;;-5.70;87.19
60465;BME280;46314;52.392;9.758;2024-01-11T06:15:19;102547.44;;;-5.48;85.83
60465;BME280;46314;52.392;9.758;2024-01-11T06:17:46;102537.69;;;-5.31;85.34
60465;BME280;46314;52.392;9.758;2024-01-11T06:20:13;102531.16;;;-5.38;85.69
60465;BME280;46314;52.392;9.758;2024-01-11T06:22:40;102504.19;;;-5.20;84.92
60465;BME280;46314;52.392;9.758;2024-01-11T06:25:12;102516.06;;;-5.31;84.48
60465;BME280;46314;52.392;9.758;2024-01-11T06:27:38;102515.03;;;-4.84;82.24
60465;BME280;46314;52.392;9.758;2024-01-11T06:30:06;102513.13;;;-4.74;80.49
60465;BME280;46314;52.392;9.758;2024-01-11T06:32:33;102517.16;;;-5.24;83.66
60465;BME280;46314;52.392;9.758;2024-01-11T06:34:59;102508.53;;;-4.73;81.69
60465;BME280;46314;52.392;9.758;2024-01-11T06:37:26;102517.31;;;-5.63;84.19
60465;BME280;46314;52.392;9.758;2024-01-11T06:39:52;102525.81;;;-5.85;88.29
60465;BME280;46314;52.392;9.758;2024-01-11T06:42:20;102528.31;;;-4.91;83.60
60465;BME280;46314;52.392;9.758;2024-01-11T06:44:47;102524.19;;;-4.85;81.91
60465;BME280;46314;52.392;9.758;2024-01-11T06:47:13;102521.81;;;-4.98;82.69
60465;BME280;46314;52.392;9.758;2024-01-11T06:49:40;102518.13;;;-5.25;85.04
60465;BME280;46314;52.392;9.758;2024-01-11T06:52:07;102519.59;;;-5.03;85.05
60465;BME280;46314;52.392;9.758;2024-01-11T06:54:34;102531.44;;;-5.79;88.86
60465;BME280;46314;52.392;9.758;2024-01-11T06:57:00;102522.75;;;-5.73;88.82
60465;BME280;46314;52.392;9.758;2024-01-11T06:59:28;102530.78;;;-5.91;91.56
60465;BME280;46314;52.392;9.758;2024-01-11T07:01:54;102526.69;;;-5.57;90.80
60465;BME280;46314;52.392;9.758;2024-01-11T07:04:21;102529.41;;;-5.57;90.07
60465;BME280;46314;52.392;9.758;2024-01-11T07:06:48;102526.44;;;-5.64;90.67
60465;BME280;46314;52.392;9.758;2024-01-11T07:09:14;102541.56;;;-5.81;91.36
60465;BME280;46314;52.392;9.758;2024-01-11T07:11:41;102560.59;;;-5.73;93.05
60465;BME280;46314;52.392;9.758;2024-01-11T07:14:07;102569.03;;;-5.10;88.69
60465;BME280;46314;52.392;9.758;2024-01-11T07:16:35;102573.25;;;-5.26;89.63
60465;BME280;46314;52.392;9.758;2024-01-11T07:19:01;102574.84;;;-4.60;84.39
60465;BME280;46314;52.392;9.758;2024-01-11T07:21:28;102579.41;;;-4.60;83.26
60465;BME280;46314;52.392;9.758;2024-01-11T07:23:55;102585.06;;;-4.35;81.17
60465;BME280;46314;52.392;9.758;2024-01-11T07:26:22;102600.78;;;-4.57;80.84
60465;BME280;46314;52.392;9.758;2024-01-11T07:28:48;102585.38;;;-4.57;79.49
60465;BME280;46314;52.392;9.758;2024-01-11T07:31:15;102577.13;;;-4.83;81.87
60465;BME280;46314;52.392;9.758;2024-01-11T07:33:44;102579.72;;;-4.63;80.70
60465;BME280;46314;52.392;9.758;2024-01-11T07:36:12;102578.34;;;-4.95;80.73
60465;BME280;46314;52.392;9.758;2024-01-11T07:38:38;102575.69;;;-5.05;83.28
60465;BME280;46314;52.392;9.758;2024-01-11T07:41:05;102588.94;;;-5.86;87.21
60465;BME280;46314;52.392;9.758;2024-01-11T07:43:32;102588.22;;;-5.04;84.50
60465;BME280;46314;52.392;9.758;2024-01-11T07:46:13;102583.97;;;-4.61;82.96
60465;BME280;46314;52.392;9.758;2024-01-11T07:48:40;102575.34;;;-4.92;84.13
60465;BME280;46314;52.392;9.758;2024-01-11T07:51:08;102568.72;;;-4.62;82.93
60465;BME280;46314;52.392;9.758;2024-01-11T07:53:34;102574.66;;;-5.22;86.26
60465;BME280;46314;52.392;9.758;2024-01-11T07:56:01;102566.13;;;-4.99;86.91
60465;BME280;46314;52.392;9.758;2024-01-11T07:58:27;102564.22;;;-5.17;85.86
60465;BME280;46314;52.392;9.758;2024-01-11T08:00:54;102563.31;;;-4.80;85.85
60465;BME280;46314;52.392;9.758;2024-01-11T08:03:21;102576.75;;;-5.43;86.88
60465;BME280;46314;52.392;9.758;2024-01-11T08:05:47;102573.63;;;-5.58;90.08
60465;BME280;46314;52.392;9.758;2024-01-11T08:08:16;102576.41;;;-5.30;88.17
60465;BME280;46314;52.392;9.758;2024-01-11T08:10:42;102563.38;;;-5.45;89.01
60465;BME280;46314;52.392;9.758;2024-01-11T08:13:09;102550.72;;;-5.17;88.74
60465;BME280;46314;52.392;9.758;2024-01-11T08:15:35;102557.88;;;-5.25;88.12
60465;BME280;46314;52.392;9.758;2024-01-11T08:18:02;102561.16;;;-5.79;91.81
60465;BME280;46314;52.392;9.758;2024-01-11T08:20:28;102567.13;;;-5.75;92.51
60465;BME280;46314;52.392;9.758;2024-01-11T08:22:55;102569.53;;;-5.25;89.72
60465;BME280;46314;52.392;9.758;2024-01-11T08:25:23;102569.25;;;-5.32;88.69
60465;BME280;46314;52.392;9.758;2024-01-11T08:27:49;102570.44;;;-5.06;88.56
60465;BME280;46314;52.392;9.758;2024-01-11T08:30:16;102574.41;;;-5.01;87.88
60465;BME280;46314;52.392;9.758;2024-01-11T08:32:42;102564.94;;;-4.69;85.85
60465;BME280;46314;52.392;9.758;2024-01-11T08:35:09;102565.44;;;-5.29;89.07
60465;BME280;46314;52.392;9.758;2024-01-11T08:37:36;102565.72;;;-5.32;90.52
60465;BME280;46314;52.392;9.758;2024-01-11T08:40:04;102575.56;;;-5.41;90.89
60465;BME280;46314;52.392;9.758;2024-01-11T08:42:31;102580.88;;;-5.11;90.98
60465;BME280;46314;52.392;9.758;2024-01-11T08:44:58;102586.50;;;-4.77;91.72
60465;BME280;46314;52.392;9.758;2024-01-11T08:47:26;102605.47;;;-4.59;89.08
60465;BME280;46314;52.392;9.758;2024-01-11T08:49:53;102614.22;;;-4.29;86.88
60465;BME280;46314;52.392;9.758;2024-01-11T08:52:20;102604.78;;;-3.63;82.50
60465;BME280;46314;52.392;9.758;2024-01-11T08:54:46;102592.84;;;-3.18;78.95
60465;BME280;46314;52.392;9.758;2024-01-11T08:57:12;102603.78;;;-4.24;86.16
60465;BME280;46314;52.392;9.758;2024-01-11T08:59:40;102599.31;;;-3.11;80.00
60465;BME280;46314;52.392;9.758;2024-01-11T09:02:07;102594.16;;;-2.88;78.05
60465;BME280;46314;52.392;9.758;2024-01-11T09:04:43;102588.78;;;-4.37;84.62
60465;BME280;46314;52.392;9.758;2024-01-11T09:07:10;102579.94;;;-3.50;83.11
60465;BME280;46314;52.392;9.758;2024-01-11T09:09:36;102586.84;;;-3.82;81.61
60465;BME280;46314;52.392;9.758;2024-01-11T09:12:16;102579.00;;;-4.29;87.69
60465;BME280;46314;52.392;9.758;2024-01-11T09:14:43;102573.38;;;-3.39;84.14
60465;BME280;46314;52.392;9.758;2024-01-11T09:17:10;102590.38;;;-3.64;85.93
60465;BME280;46314;52.392;9.758;2024-01-11T09:19:37;102596.31;;;-3.86;88.92
60465;BME280;46314;52.392;9.758;2024-01-11T09:22:03;102598.44;;;-3.19;86.06
60465;BME280;46314;52.392;9.758;2024-01-11T09:24:30;102605.66;;;-2.94;82.49
60465;BME280;46314;52.392;9.758;2024-01-11T09:27:02;102606.72;;;-3.21;84.61
60465;BME280;46314;52.392;9.758;2024-01-11T09:29:29;102608.25;;;-3.18;87.49
60465;BME280;46314;52.392;9.758;2024-01-11T09:31:58;102614.53;;;-2.83;83.89
60465;BME280;46314;52.392;9.758;2024-01-11T09:34:25;102615.25;;;-2.73;84.99
60465;BME280;46314;52.392;9.758;2024-01-11T09:36:51;102610.03;;;-2.50;82.85
60465;BME280;46314;52.392;9.758;2024-01-11T09:39:18;102601.06;;;-2.34;82.86
60465;BME280;46314;52.392;9.758;2024-01-11T09:41:51;102577.88;;;-3.22;86.93
60465;BME280;46314;52.392;9.758;2024-01-11T09:44:19;102571.13;;;-2.75;86.69
60465;BME280;46314;52.392;9.758;2024-01-11T09:46:45;102577.88;;;-3.56;92.89
60465;BME280;46314;52.392;9.758;2024-01-11T09:49:16;102572.38;;;-3.04;91.87
60465;BME280;46314;52.392;9.758;2024-01-11T09:51:44;102567.44;;;-2.41;89.08
60465;BME280;46314;52.392;9.758;2024-01-11T09:54:13;102556.91;;;-2.36;87.97
60465;BME280;46314;52.392;9.758;2024-01-11T09:56:41;102557.88;;;-2.70;89.61
60465;BME280;46314;52.392;9.758;2024-01-11T09:59:09;102557.94;;;-2.04;85.42
60465;BME280;46314;52.392;9.758;2024-01-11T10:01:38;102562.34;;;-2.44;88.94
60465;BME280;46314;52.392;9.758;2024-01-11T10:04:05;102562.34;;;-2.44;89.26
60465;BME280;46314;52.392;9.758;2024-01-11T10:06:34;102567.81;;;-2.20;88.79
60465;BME280;46314;52.392;9.758;2024-01-11T10:09:02;102558.28;;;-2.40;90.26
60465;BME280;46314;52.392;9.758;2024-01-11T10:11:29;102559.31;;;-2.08;90.13
60465;BME280;46314;52.392;9.758;2024-01-11T10:13:56;102557.94;;;-1.88;88.33
60465;BME280;46314;52.392;9.758;2024-01-11T10:16:23;102560.63;;;-1.72;87.23
60465;BME280;46314;52.392;9.758;2024-01-11T10:18:49;102550.13;;;-1.99;89.22
60465;BME280;46314;52.392;9.758;2024-01-11T10:21:21;102557.03;;;-1.56;87.27
60465;BME280;46314;52.392;9.758;2024-01-11T10:23:50;102542.78;;;-1.18;85.32
60465;BME280;46314;52.392;9.758;2024-01-11T10:26:17;102558.94;;;-1.97;90.27
60465;BME280;46314;52.392;9.758;2024-01-11T10:28:44;102552.16;;;-1.93;92.69
60465;BME280;46314;52.392;9.758;2024-01-11T10:31:11;102550.81;;;-2.38;95.19
60465;BME280;46314;52.392;9.758;2024-01-11T10:33:37;102547.91;;;-2.37;100.00
60465;BME280;46314;52.392;9.758;2024-01-11T10:36:05;102554.84;;;-2.59;100.00
60465;BME280;46314;52.392;9.758;2024-01-11T10:38:34;102553.88;;;-2.33;100.00
60465;BME280;46314;52.392;9.758;2024-01-11T10:41:04;102547.22;;;-2.06;100.00
60465;BME280;46314;52.392;9.758;2024-01-11T10:43:32;102552.88;;;-2.07;100.00
60465;BME280;46314;52.392;9.758;2024-01-11T10:46:03;102566.09;;;-2.45;100.00
60465;BME280;46314;52.392;9.758;2024-01-11T10:48:31;102554.72;;;-1.27;99.49
60465;BME280;46314;52.392;9.758;2024-01-11T10:51:00;102565.75;;;-2.01;99.93
60465;BME280;46314;52.392;9.758;2024-01-11T10:53:33;102558.28;;;-1.91;100.00
60465;BME280;46314;52.392;9.758;2024-01-11T10:56:04;102560.31;;;-2.10;100.00
60465;BME280;46314;52.392;9.758;2024-01-11T10:58:32;102562.13;;;-1.53;100.00
60465;BME280;46314;52.392;9.758;2024-01-11T11:01:00;102555.38;;;-1.81;100.00
60465;BME280;46314;52.392;9.758;2024-01-11T11:03:27;102559.06;;;-1.58;100.00
60465;BME280;46314;52.392;9.758;2024-01-11T11:05:55;102558.06;;;-1.65;100.00
60465;BME280;46314;52.392;9.758;2024-01-11T11:08:23;102549.63;;;-1.30;100.00
60465;BME280;46314;52.392;9.758;2024-01-11T11:10:54;102550.59;;;-1.15;98.73
60465;BME280;46314;52.392;9.758;2024-01-11T11:13:23;102561.19;;;-2.09;100.00
60465;BME280;46314;52.392;9.758;2024-01-11T11:15:50;102550.56;;;-1.55;100.00
60465;BME280;46314;52.392;9.758;2024-01-11T11:18:17;102554.84;;;-1.77;100.00
60465;BME280;46314;52.392;9.758;2024-01-11T11:20:44;102547.06;;;-1.24;100.00
60465;BME280;46314;52.392;9.758;2024-01-11T11:23:13;102539.38;;;-1.20;100.00
60465;BME280;46314;52.392;9.758;2024-01-11T11:25:40;102536.03;;;-0.91;100.00
60465;BME280;46314;52.392;9.758;2024-01-11T11:28:07;102543.50;;;-0.62;100.00
60465;BME280;46314;52.392;9.758;2024-01-11T11:30:37;102534.75;;;-0.80;98.78
60465;BME280;46314;52.392;9.758;2024-01-11T11:33:08;102533.06;;;-0.81;100.00
60465;BME280;46314;52.392;9.758;2024-01-11T11:35:35;102535.22;;;-0.45;99.45
60465;BME280;46314;52.392;9.758;2024-01-11T11:38:02;102527.94;;;-0.53;98.20
60465;BME280;46314;52.392;9.758;2024-01-11T11:40:33;102519.53;;;-0.98;100.00
60465;BME280;46314;52.392;9.758;2024-01-11T11:43:01;102521.72;;;-1.24;100.00
60465;BME280;46314;52.392;9.758;2024-01-11T11:45:27;102502.19;;;-0.97;100.00
60465;BME280;46314;52.392;9.758;2024-01-11T11:47:55;102509.00;;;-1.01;100.00
60465;BME280;46314;52.392;9.758;2024-01-11T11:50:22;102494.34;;;-1.31;100.00
60465;BME280;46314;52.392;9.758;2024-01-11T11:52:53;102492.66;;;-1.01;100.00
60465;BME280;46314;52.392;9.758;2024-01-11T11:55:22;102484.28;;;-0.68;100.00
60465;BME280;46314;52.392;9.758;2024-01-11T11:57:49;102479.34;;;-0.96;100.00
60465;BME280;46314;52.392;9.758;2024-01-11T12:00:16;102480.75;;;-1.00;100.00
60465;BME280;46314;52.392;9.758;2024-01-11T12:02:43;102489.06;;;-0.70;100.00
60465;BME280;46314;52.392;9.758;2024-01-11T12:05:11;102483.34;;;-0.37;100.00
60465;BME280;46314;52.392;9.758;2024-01-11T12:07:37;102477.69;;;-0.50;100.00
60465;BME280;46314;52.392;9.758;2024-01-11T12:10:04;102466.16;;;-0.61;100.00
60465;BME280;46314;52.392;9.758;2024-01-11T12:12:31;102465.09;;;-1.06;100.00
60465;BME280;46314;52.392;9.758;2024-01-11T12:14:58;102466.59;;;-1.26;100.00
60465;BME280;46314;52.392;9.758;2024-01-11T12:17:24;102458.81;;;-1.06;100.00
60465;BME280;46314;52.392;9.758;2024-01-11T12:19:52;102446.56;;;-1.34;100.00
60465;BME280;46314;52.392;9.758;2024-01-11T12:22:21;102447.72;;;-0.73;100.00
60465;BME280;46314;52.392;9.758;2024-01-11T12:24:47;102453.81;;;-0.10;100.00
60465;BME280;46314;52.392;9.758;2024-01-11T12:27:14;102451.44;;;-0.98;100.00
60465;BME280;46314;52.392;9.758;2024-01-11T12:29:40;102458.16;;;-0.39;100.00
60465;BME280;46314;52.392;9.758;2024-01-11T12:32:22;102461.56;;;-1.06;100.00
60465;BME280;46314;52.392;9.758;2024-01-11T12:34:49;102468.09;;;-0.46;100.00
60465;BME280;46314;52.392;9.758;2024-01-11T12:37:15;102456.41;;;-0.55;100.00
60465;BME280;46314;52.392;9.758;2024-01-11T12:39:43;102466.28;;;-0.54;100.00
60465;BME280;46314;52.392;9.758;2024-01-11T12:42:10;102457.00;;;-0.45;100.00
60465;BME280;46314;52.392;9.758;2024-01-11T12:44:36;102459.41;;;-0.27;100.00
60465;BME280;46314;52.392;9.758;2024-01-11T12:47:04;102458.81;;;-0.37;100.00
60465;BME280;46314;52.392;9.758;2024-01-11T12:49:30;102447.03;;;0.01;100.00